^^
Station Historical Data
Daily Summary for February 23, 2012 Units:  English    Metric   Both
« Previous Day
Next Day »
Daily Weekly Monthly Yearly Custom
  High: Low: Average:
Temperature: 48.8 °F 20.5 °F 30.7 °F
Dew Point: 35.5 °F 4.6 °F 15.4 °F
Humidity: 85% 29% 54%
Wind Speed: 27.6mph 1.1mph 13.3mph
Wind Gust: 27.6mph - -
Wind- - West
Pressure: 30.16 in 29.23 in -
Precipitation: 0.03 in    
Historical Graphs
 
 
Tabular Data for February 23, 2012
Time Temperature Dew Point Pressure Wind Wind Speed Wind Gust Humidity Rainfall Rate (Hourly)
00:01 48.8 °F 28.9 °F 29.24 in South 11.5 mph 11.5 mph 46% 0.00 in
00:06 48.5 °F 30.7 °F 29.24 in SW 9.2 mph 9.2 mph 50% 0.00 in
00:11 48.2 °F 30.9 °F 29.24 in North 15.0 mph 15.0 mph 51% 0.00 in
00:16 48.0 °F 31.2 °F 29.25 in WSW 13.8 mph 13.8 mph 52% 0.00 in
00:21 47.7 °F 31.4 °F 29.24 in SW 13.8 mph 13.8 mph 53% 0.00 in
00:26 46.8 °F 31.9 °F 29.23 in SW 8.1 mph 8.1 mph 56% 0.00 in
00:31 46.2 °F 32.7 °F 29.24 in SSE 11.5 mph 11.5 mph 59% 0.00 in
00:36 45.8 °F 32.3 °F 29.24 in WSW 6.9 mph 6.9 mph 59% 0.00 in
00:41 45.7 °F 32.6 °F 29.25 in East 12.7 mph 12.7 mph 60% 0.00 in
00:46 45.7 °F 32.2 °F 29.25 in SE 11.5 mph 11.5 mph 59% 0.00 in
00:51 45.7 °F 32.6 °F 29.25 in ESE 26.5 mph 26.5 mph 60% 0.00 in
00:56 44.3 °F 33.3 °F 29.24 in NW 27.6 mph 27.6 mph 65% 0.00 in
01:01 43.2 °F 33.7 °F 29.28 in South 16.1 mph 16.1 mph 69% 0.00 in
01:06 42.8 °F 34.4 °F 29.28 in NW 17.0 mph 17.0 mph 72% 0.00 in
01:11 42.5 °F 34.8 °F 29.30 in SSE 10.4 mph 10.4 mph 74% 0.00 in
01:16 42.3 °F 34.3 °F 29.31 in South 10.4 mph 10.4 mph 73% 0.00 in
01:21 42.5 °F 35.1 °F 29.30 in South 23.0 mph 23.0 mph 75% 0.02 in
01:26 41.9 °F 35.5 °F 29.31 in SW 12.7 mph 12.7 mph 78% 0.02 in
01:31 41.5 °F 35.2 °F 29.35 in NNW 25.3 mph 25.3 mph 78% 0.03 in
01:36 37.9 °F 29.7 °F 29.38 in NW 20.7 mph 20.7 mph 72% 0.03 in
01:41 34.3 °F 28.5 °F 29.43 in NW 19.0 mph 19.0 mph 79% 0.03 in
01:46 33.1 °F 28.2 °F 29.45 in NNW 12.7 mph 12.7 mph 82% 0.03 in
01:51 32.7 °F 27.8 °F 29.46 in NNW 24.2 mph 24.2 mph 82% 0.03 in
01:56 32.4 °F 27.5 °F 29.46 in NNW 15.0 mph 15.0 mph 82% 0.03 in
02:01 31.9 °F 27.6 °F 29.47 in North 20.7 mph 20.7 mph 84% 0.03 in
02:06 31.2 °F 26.9 °F 29.49 in NNW 21.9 mph 21.9 mph 84% 0.03 in
02:11 31.0 °F 26.7 °F 29.50 in WNW 26.5 mph 26.5 mph 84% 0.03 in
02:16 30.9 °F 26.3 °F 29.50 in North 23.0 mph 23.0 mph 83% 0.03 in
02:21 30.9 °F 26.1 °F 29.49 in NNW 18.4 mph 18.4 mph 82% 0.01 in
02:26 31.2 °F 25.7 °F 29.49 in NNW 18.4 mph 18.4 mph 80% 0.01 in
02:31 31.5 °F 25.1 °F 29.47 in NNW 19.6 mph 19.6 mph 77% 0.00 in
02:36 31.8 °F 24.8 °F 29.47 in NNW 23.0 mph 23.0 mph 75% 0.00 in
02:41 31.9 °F 24.2 °F 29.47 in NNW 19.6 mph 19.6 mph 73% 0.00 in
02:46 32.1 °F 24.1 °F 29.47 in North 18.4 mph 18.4 mph 72% 0.00 in
02:51 32.2 °F 24.2 °F 29.47 in NNW 23.0 mph 23.0 mph 72% 0.00 in
02:56 32.2 °F 23.5 °F 29.47 in NW 23.0 mph 23.0 mph 70% 0.00 in
03:01 32.4 °F 23.4 °F 29.47 in NNW 26.5 mph 26.5 mph 69% 0.00 in
03:06 32.5 °F 23.1 °F 29.47 in NW 21.0 mph 21.0 mph 68% 0.00 in
03:11 32.7 °F 22.9 °F 29.47 in NW 19.6 mph 19.6 mph 67% 0.00 in
03:16 32.7 °F 22.9 °F 29.48 in WNW 20.7 mph 20.7 mph 67% 0.00 in
03:21 32.7 °F 22.9 °F 29.48 in North 16.1 mph 16.1 mph 67% 0.00 in
03:26 32.7 °F 22.9 °F 29.49 in North 19.6 mph 19.6 mph 67% 0.00 in
03:31 32.7 °F 22.9 °F 29.50 in NNW 20.0 mph 20.0 mph 67% 0.00 in
03:36 32.5 °F 22.8 °F 29.50 in NNE 16.1 mph 16.1 mph 67% 0.00 in
03:41 32.4 °F 23.4 °F 29.50 in North 16.0 mph 16.0 mph 69% 0.00 in
03:46 32.4 °F 23.0 °F 29.51 in NW 17.3 mph 17.3 mph 68% 0.00 in
03:51 32.4 °F 22.7 °F 29.50 in NNW 18.4 mph 18.4 mph 67% 0.00 in
03:56 32.4 °F 23.0 °F 29.51 in NNW 12.7 mph 12.7 mph 68% 0.00 in
04:01 32.4 °F 23.0 °F 29.52 in NNW 12.7 mph 12.7 mph 68% 0.00 in
04:06 32.4 °F 23.4 °F 29.53 in NNW 11.5 mph 11.5 mph 69% 0.00 in
04:11 32.2 °F 23.5 °F 29.53 in NW 11.5 mph 11.5 mph 70% 0.00 in
04:16 31.9 °F 23.9 °F 29.53 in NNW 12.7 mph 12.7 mph 72% 0.00 in
04:21 31.6 °F 24.3 °F 29.54 in NW 11.5 mph 11.5 mph 74% 0.00 in
04:26 31.2 °F 24.8 °F 29.56 in NNW 12.7 mph 12.7 mph 77% 0.00 in
04:31 30.9 °F 25.2 °F 29.56 in NNW 10.4 mph 10.4 mph 79% 0.00 in
04:36 30.6 °F 25.5 °F 29.56 in North 9.2 mph 9.2 mph 81% 0.00 in
04:41 30.4 °F 25.6 °F 29.56 in NNW 5.8 mph 5.8 mph 82% 0.00 in
04:46 30.4 °F 25.9 °F 29.57 in North 5.8 mph 5.8 mph 83% 0.00 in
04:51 30.3 °F 26.0 °F 29.57 in North 9.2 mph 9.2 mph 84% 0.00 in
04:56 30.1 °F 25.8 °F 29.57 in North 5.8 mph 5.8 mph 84% 0.00 in
05:01 30.3 °F 26.0 °F 29.59 in NW 10.4 mph 10.4 mph 84% 0.00 in
05:06 30.1 °F 26.1 °F 29.58 in NNW 11.5 mph 11.5 mph 85% 0.00 in
05:11 30.3 °F 26.3 °F 29.59 in NNW 5.8 mph 5.8 mph 85% 0.00 in
05:16 30.4 °F 26.1 °F 29.60 in NNW 9.0 mph 9.0 mph 84% 0.00 in
05:21 30.9 °F 25.5 °F 29.61 in North 9.0 mph 9.0 mph 80% 0.00 in
05:26 31.0 °F 25.9 °F 29.62 in NNE 9.2 mph 9.2 mph 81% 0.00 in
05:32 31.0 °F 25.9 °F 29.62 in NNE 8.1 mph 8.1 mph 81% 0.00 in
05:37 30.3 °F 24.6 °F 29.62 in North 11.5 mph 11.5 mph 79% 0.00 in
05:42 29.5 °F 22.9 °F 29.63 in NNW 11.5 mph 11.5 mph 76% 0.00 in
05:47 29.0 °F 21.7 °F 29.64 in NNW 13.8 mph 13.8 mph 74% 0.00 in
05:52 28.5 °F 20.9 °F 29.64 in NNW 15.0 mph 15.0 mph 73% 0.00 in
05:57 28.2 °F 20.7 °F 29.64 in NNW 15.0 mph 15.0 mph 73% 0.00 in
06:02 28.2 °F 20.3 °F 29.65 in North 16.1 mph 16.1 mph 72% 0.00 in
06:07 28.1 °F 20.2 °F 29.65 in NW 18.0 mph 18.0 mph 72% 0.00 in
06:12 28.1 °F 20.2 °F 29.65 in NNW 13.8 mph 13.8 mph 72% 0.00 in
06:17 27.9 °F 20.0 °F 29.67 in NE 12.7 mph 12.7 mph 72% 0.00 in
06:22 27.8 °F 19.9 °F 29.67 in NNW 11.5 mph 11.5 mph 72% 0.00 in
06:27 27.9 °F 20.0 °F 29.66 in NNW 11.5 mph 11.5 mph 72% 0.00 in
06:32 27.9 °F 20.0 °F 29.67 in NNW 10.4 mph 10.4 mph 72% 0.00 in
06:37 28.1 °F 19.6 °F 29.67 in NW 19.6 mph 19.6 mph 70% 0.00 in
06:39 28.2 °F 19.0 °F 29.67 in NW 16.1 mph 16.1 mph 68% 0.00 in
06:44 28.2 °F 18.6 °F 29.68 in NNW 13.8 mph 13.8 mph 67% 0.00 in
06:49 28.4 °F 18.5 °F 29.67 in NW 17.3 mph 17.3 mph 66% 0.00 in
06:54 28.5 °F 17.9 °F 29.67 in NW 18.4 mph 18.4 mph 64% 0.00 in
06:59 28.7 °F 17.7 °F 29.67 in NNW 12.7 mph 12.7 mph 63% 0.00 in
07:04 28.7 °F 16.6 °F 29.68 in NNW 16.1 mph 16.1 mph 60% 0.00 in
07:09 28.8 °F 16.3 °F 29.68 in NNW 19.6 mph 19.6 mph 59% 0.00 in
07:14 28.8 °F 15.9 °F 29.69 in NNW 18.4 mph 18.4 mph 58% 0.00 in
07:19 28.8 °F 15.5 °F 29.69 in NNW 18.4 mph 18.4 mph 57% 0.00 in
07:24 28.8 °F 15.5 °F 29.70 in NW 18.4 mph 18.4 mph 57% 0.00 in
07:29 28.7 °F 15.4 °F 29.71 in NW 19.6 mph 19.6 mph 57% 0.00 in
07:34 28.5 °F 15.2 °F 29.71 in West 12.7 mph 12.7 mph 57% 0.00 in
07:39 28.5 °F 15.2 °F 29.72 in NW 13.8 mph 13.8 mph 57% 0.00 in
07:44 28.4 °F 15.1 °F 29.74 in NNW 11.5 mph 11.5 mph 57% 0.00 in
07:49 28.4 °F 15.5 °F 29.74 in NNW 10.4 mph 10.4 mph 58% 0.00 in
07:54 28.5 °F 16.0 °F 29.73 in NNE 5.0 mph 5.0 mph 59% 0.00 in
07:59 28.8 °F 15.9 °F 29.73 in NNW 8.1 mph 8.1 mph 58% 0.00 in
08:04 29.3 °F 16.3 °F 29.75 in NNW 8.1 mph 8.1 mph 58% 0.00 in
08:09 29.5 °F 16.5 °F 29.74 in NNW 8.0 mph 8.0 mph 58% 0.00 in
08:14 29.8 °F 16.4 °F 29.75 in NW 4.6 mph 4.6 mph 57% 0.00 in
08:19 30.0 °F 16.6 °F 29.75 in NNW 6.9 mph 6.9 mph 57% 0.00 in
08:24 30.1 °F 16.3 °F 29.76 in West 6.9 mph 6.9 mph 56% 0.00 in
08:29 30.3 °F 16.0 °F 29.75 in NNW 10.4 mph 10.4 mph 55% 0.00 in
08:34 30.3 °F 16.0 °F 29.75 in North 13.8 mph 13.8 mph 55% 0.00 in
08:37 30.1 °F 15.9 °F 29.75 in NW 10.4 mph 10.4 mph 55% 0.00 in
08:42 30.1 °F 15.4 °F 29.75 in NNW 13.8 mph 13.8 mph 54% 0.00 in
08:47 30.1 °F 15.9 °F 29.76 in NW 10.4 mph 10.4 mph 55% 0.00 in
08:52 30.3 °F 15.6 °F 29.76 in NW 11.5 mph 11.5 mph 54% 0.00 in
08:57 30.3 °F 16.5 °F 29.76 in NNW 8.0 mph 8.0 mph 56% 0.00 in
09:02 30.3 °F 16.5 °F 29.77 in WNW 10.4 mph 10.4 mph 56% 0.00 in
09:07 30.4 °F 15.7 °F 29.77 in NNW 11.5 mph 11.5 mph 54% 0.00 in
09:12 30.6 °F 16.3 °F 29.76 in NNW 6.9 mph 6.9 mph 55% 0.00 in
09:17 31.0 °F 16.3 °F 29.76 in NNW 10.4 mph 10.4 mph 54% 0.00 in
09:22 31.3 °F 17.0 °F 29.76 in North 6.0 mph 6.0 mph 55% 0.00 in
09:27 31.8 °F 17.9 °F 29.76 in WNW 5.8 mph 5.8 mph 56% 0.00 in
09:32 31.9 °F 17.1 °F 29.76 in NW 12.0 mph 12.0 mph 54% 0.00 in
09:37 32.1 °F 16.9 °F 29.76 in NW 12.7 mph 12.7 mph 53% 0.00 in
09:42 32.2 °F 16.5 °F 29.76 in NNW 12.0 mph 12.0 mph 52% 0.00 in
09:47 32.4 °F 16.7 °F 29.76 in NNE 10.4 mph 10.4 mph 52% 0.00 in
09:52 32.5 °F 15.0 °F 29.75 in NNW 12.7 mph 12.7 mph 48% 0.00 in
09:57 32.7 °F 14.2 °F 29.75 in WSW 12.7 mph 12.7 mph 46% 0.00 in
10:02 32.9 °F 14.8 °F 29.76 in NNW 16.1 mph 16.1 mph 47% 0.00 in
10:07 32.9 °F 14.4 °F 29.76 in NW 13.8 mph 13.8 mph 46% 0.00 in
10:12 33.1 °F 14.5 °F 29.77 in NNW 5.8 mph 5.8 mph 46% 0.00 in
10:17 33.4 °F 14.8 °F 29.77 in North 12.7 mph 12.7 mph 46% 0.00 in
10:22 33.7 °F 13.5 °F 29.76 in NE 11.5 mph 11.5 mph 43% 0.00 in
10:27 33.7 °F 12.5 °F 29.76 in North 15.0 mph 15.0 mph 41% 0.00 in
10:32 33.7 °F 11.3 °F 29.76 in ESE 15.0 mph 15.0 mph 39% 0.00 in
10:37 33.7 °F 13.0 °F 29.77 in WSW 9.2 mph 9.2 mph 42% 0.00 in
10:42 33.8 °F 12.6 °F 29.77 in SSW 7.0 mph 7.0 mph 41% 0.00 in
10:47 33.8 °F 13.1 °F 29.77 in NNE 10.4 mph 10.4 mph 42% 0.00 in
10:52 34.0 °F 14.9 °F 29.77 in NNW 3.5 mph 3.5 mph 45% 0.00 in
10:57 34.0 °F 12.2 °F 29.77 in South 15.0 mph 15.0 mph 40% 0.00 in
11:02 33.8 °F 13.6 °F 29.77 in WSW 15.0 mph 15.0 mph 43% 0.00 in
11:07 33.8 °F 14.2 °F 29.78 in ESE 10.4 mph 10.4 mph 44% 0.00 in
11:12 34.1 °F 15.5 °F 29.79 in SW 5.8 mph 5.8 mph 46% 0.00 in
11:17 34.1 °F 14.4 °F 29.79 in West 11.5 mph 11.5 mph 44% 0.00 in
11:22 34.0 °F 14.3 °F 29.79 in NNE 15.0 mph 15.0 mph 44% 0.00 in
11:27 33.7 °F 13.5 °F 29.79 in North 11.5 mph 11.5 mph 43% 0.00 in
11:32 33.7 °F 14.1 °F 29.79 in WNW 12.0 mph 12.0 mph 44% 0.00 in
11:38 33.8 °F 14.7 °F 29.79 in NNE 11.5 mph 11.5 mph 45% 0.00 in
11:43 33.7 °F 13.5 °F 29.79 in North 11.5 mph 11.5 mph 43% 0.00 in
11:48 33.8 °F 13.6 °F 29.79 in SE 12.7 mph 12.7 mph 43% 0.00 in
11:53 33.8 °F 14.2 °F 29.80 in NW 15.0 mph 15.0 mph 44% 0.00 in
11:58 34.0 °F 13.8 °F 29.80 in WNW 16.1 mph 16.1 mph 43% 0.00 in
12:03 34.0 °F 11.6 °F 29.83 in West 19.6 mph 19.6 mph 39% 0.00 in
12:08 34.0 °F 11.6 °F 29.83 in WSW 15.0 mph 15.0 mph 39% 0.00 in
12:13 33.8 °F 12.0 °F 29.83 in North 16.1 mph 16.1 mph 40% 0.00 in
12:18 33.7 °F 12.5 °F 29.83 in West 12.7 mph 12.7 mph 41% 0.00 in
12:23 34.0 °F 12.7 °F 29.83 in West 15.0 mph 15.0 mph 41% 0.00 in
12:28 34.1 °F 11.7 °F 29.83 in NNW 15.0 mph 15.0 mph 39% 0.00 in
12:33 34.3 °F 11.3 °F 29.83 in North 11.5 mph 11.5 mph 38% 0.00 in
12:38 34.6 °F 11.0 °F 29.82 in WSW 13.8 mph 13.8 mph 37% 0.00 in
12:44 34.6 °F 9.7 °F 29.82 in NNW 17.3 mph 17.3 mph 35% 0.00 in
12:49 34.7 °F 11.6 °F 29.82 in WSW 19.6 mph 19.6 mph 38% 0.00 in
12:54 34.9 °F 10.0 °F 29.82 in WNW 15.0 mph 15.0 mph 35% 0.00 in
12:59 34.9 °F 11.2 °F 29.82 in NNW 18.4 mph 18.4 mph 37% 0.00 in
13:04 34.6 °F 10.3 °F 29.89 in NNW 19.6 mph 19.6 mph 36% 0.00 in
13:09 34.1 °F 9.3 °F 29.89 in North 18.4 mph 18.4 mph 35% 0.00 in
13:14 33.8 °F 9.6 °F 29.89 in WNW 15.0 mph 15.0 mph 36% 0.00 in
13:19 34.0 °F 11.0 °F 29.89 in NNW 15.0 mph 15.0 mph 38% 0.00 in
13:24 34.3 °F 9.4 °F 29.89 in NNE 11.5 mph 11.5 mph 35% 0.00 in
13:29 34.4 °F 10.2 °F 29.89 in West 13.8 mph 13.8 mph 36% 0.00 in
13:34 34.1 °F 8.6 °F 29.89 in SSW 20.7 mph 20.7 mph 34% 0.00 in
13:39 33.8 °F 8.4 °F 29.89 in NNW 16.1 mph 16.1 mph 34% 0.00 in
13:44 34.0 °F 9.8 °F 29.89 in SSE 16.1 mph 16.1 mph 36% 0.00 in
13:49 34.0 °F 9.2 °F 29.89 in NW 17.3 mph 17.3 mph 35% 0.00 in
13:54 34.1 °F 9.3 °F 29.89 in NNW 11.5 mph 11.5 mph 35% 0.00 in
13:59 34.4 °F 10.8 °F 29.89 in NW 19.6 mph 19.6 mph 37% 0.00 in
14:04 34.6 °F 9.7 °F 29.90 in North 12.7 mph 12.7 mph 35% 0.00 in
14:09 34.7 °F 9.8 °F 29.90 in NNW 6.9 mph 6.9 mph 35% 0.00 in
14:14 34.7 °F 6.4 °F 29.90 in NNW 15.0 mph 15.0 mph 30% 0.00 in
14:19 34.6 °F 5.5 °F 29.90 in WNW 12.7 mph 12.7 mph 29% 0.00 in
14:24 34.6 °F 5.5 °F 29.90 in North 19.6 mph 19.6 mph 29% 0.00 in
14:29 34.4 °F 7.5 °F 29.91 in NW 9.2 mph 9.2 mph 32% 0.00 in
14:34 34.6 °F 7.7 °F 29.91 in North 12.7 mph 12.7 mph 32% 0.00 in
14:39 34.7 °F 8.5 °F 29.91 in North 9.2 mph 9.2 mph 33% 0.00 in
14:44 34.7 °F 8.5 °F 29.92 in NNW 11.5 mph 11.5 mph 33% 0.00 in
14:49 34.7 °F 8.5 °F 29.92 in NW 11.5 mph 11.5 mph 33% 0.00 in
14:54 34.7 °F 7.1 °F 29.92 in NNE 11.5 mph 11.5 mph 31% 0.00 in
14:59 34.9 °F 8.7 °F 29.92 in NE 3.5 mph 3.5 mph 33% 0.00 in
15:04 34.9 °F 8.7 °F 29.93 in North 7.0 mph 7.0 mph 33% 0.00 in
15:09 35.0 °F 10.1 °F 29.93 in NNW 11.5 mph 11.5 mph 35% 0.00 in
15:14 34.7 °F 9.1 °F 29.93 in NNW 12.7 mph 12.7 mph 34% 0.00 in
15:19 34.4 °F 8.9 °F 29.94 in NNW 19.6 mph 19.6 mph 34% 0.00 in
15:24 34.3 °F 9.4 °F 29.94 in NW 12.7 mph 12.7 mph 35% 0.00 in
15:29 32.8 °F 15.7 °F 29.96 in North 18.4 mph 18.4 mph 49% 0.00 in
15:34 31.3 °F 15.7 °F 29.96 in NNE 17.3 mph 17.3 mph 52% 0.00 in
15:39 30.9 °F 15.8 °F 29.97 in North 13.8 mph 13.8 mph 53% 0.00 in
15:44 31.0 °F 15.8 °F 29.97 in North 14.0 mph 14.0 mph 53% 0.00 in
15:49 30.9 °F 15.8 °F 29.97 in NW 15.0 mph 15.0 mph 53% 0.00 in
15:54 31.0 °F 15.0 °F 29.98 in NNW 15.0 mph 15.0 mph 51% 0.00 in
15:59 31.2 °F 15.6 °F 29.98 in NNW 15.0 mph 15.0 mph 52% 0.00 in
16:04 31.5 °F 13.1 °F 29.98 in SSW 16.1 mph 16.1 mph 46% 0.00 in
16:09 31.8 °F 11.8 °F 29.99 in NNW 13.0 mph 13.0 mph 43% 0.00 in
16:14 31.8 °F 12.3 °F 29.99 in NNW 9.0 mph 9.0 mph 44% 0.00 in
16:19 31.9 °F 10.8 °F 30.00 in South 13.8 mph 13.8 mph 41% 0.00 in
16:24 31.9 °F 9.1 °F 30.00 in NNE 12.7 mph 12.7 mph 38% 0.00 in
16:29 31.9 °F 9.1 °F 30.00 in WSW 15.0 mph 15.0 mph 38% 0.00 in
16:34 31.8 °F 8.4 °F 30.01 in NNE 13.8 mph 13.8 mph 37% 0.00 in
16:39 31.6 °F 7.7 °F 30.01 in NNW 15.0 mph 15.0 mph 36% 0.00 in
16:44 31.5 °F 9.4 °F 30.02 in NNW 19.6 mph 19.6 mph 39% 0.00 in
16:49 31.3 °F 10.3 °F 30.03 in SW 12.7 mph 12.7 mph 41% 0.00 in
16:54 30.7 °F 15.1 °F 30.03 in NNE 4.6 mph 4.6 mph 52% 0.00 in
16:59 30.3 °F 13.4 °F 30.03 in North 11.5 mph 11.5 mph 49% 0.00 in
17:04 30.3 °F 13.4 °F 30.04 in West 7.0 mph 7.0 mph 49% 0.00 in
17:09 30.3 °F 10.4 °F 30.04 in NNE 11.5 mph 11.5 mph 43% 0.00 in
17:14 30.4 °F 13.0 °F 30.04 in WSW 3.5 mph   48% 0.00 in
17:19 30.3 °F 12.9 °F 30.05 in NW 5.8 mph 5.8 mph 48% 0.00 in
17:24 30.1 °F 13.2 °F 30.04 in North 3.5 mph 3.5 mph 49% 0.00 in
17:29 30.1 °F 13.2 °F 30.04 in WSW 3.5 mph 3.5 mph 49% 0.00 in
17:34 30.0 °F 12.7 °F 30.05 in WSW 3.5 mph 3.5 mph 48% 0.00 in
17:39 29.8 °F 11.5 °F 30.05 in SW 3.5 mph 3.5 mph 46% 0.00 in
17:44 29.8 °F 11.5 °F 30.05 in WSW 3.5 mph 3.5 mph 46% 0.00 in
17:49 29.7 °F 10.4 °F 30.06 in Calm     44% 0.00 in
17:54 29.5 °F 10.2 °F 30.06 in Calm     44% 0.00 in
17:59 29.4 °F 10.1 °F 30.07 in Calm     44% 0.00 in
18:04 29.1 °F 9.4 °F 30.06 in West 2.3 mph 2.3 mph 43% 0.00 in
18:09 29.0 °F 9.3 °F 30.07 in West 1.1 mph   43% 0.00 in
18:14 28.7 °F 8.5 °F 30.07 in Calm     42% 0.00 in
18:19 28.5 °F 8.3 °F 30.08 in Calm     42% 0.00 in
18:24 28.2 °F 8.5 °F 30.09 in Calm     43% 0.00 in
18:29 27.9 °F 8.8 °F 30.09 in Calm     44% 0.00 in
18:34 27.5 °F 8.9 °F 30.09 in Calm     45% 0.00 in
18:39 27.2 °F 9.1 °F 30.09 in Calm     46% 0.00 in
18:44 26.9 °F 9.3 °F 30.10 in Calm     47% 0.00 in
18:49 26.7 °F 9.6 °F 30.10 in Calm     48% 0.00 in
18:54 26.4 °F 9.3 °F 30.11 in Calm     48% 0.00 in
18:59 26.1 °F 9.5 °F 30.12 in Calm     49% 0.00 in
19:04 26.0 °F 9.9 °F 30.12 in Calm     50% 0.00 in
19:09 25.7 °F 10.0 °F 30.12 in Calm     51% 0.00 in
19:14 25.3 °F 10.1 °F 30.12 in Calm     52% 0.00 in
19:19 24.8 °F 10.1 °F 30.12 in Calm     53% 0.00 in
19:24 24.5 °F 9.4 °F 30.12 in Calm     52% 0.00 in
19:29 24.4 °F 9.3 °F 30.13 in Calm     52% 0.00 in
19:34 24.2 °F 9.1 °F 30.13 in Calm     52% 0.00 in
19:39 24.1 °F 9.0 °F 30.13 in Calm     52% 0.00 in
19:44 24.2 °F 8.7 °F 30.13 in Calm     51% 0.00 in
19:49 24.2 °F 8.7 °F 30.14 in Calm     51% 0.00 in
19:54 24.2 °F 9.1 °F 30.14 in Calm     52% 0.00 in
19:59 23.9 °F 8.8 °F 30.14 in Calm     52% 0.00 in
20:04 23.8 °F 8.7 °F 30.13 in Calm     52% 0.00 in
20:09 23.6 °F 8.5 °F 30.13 in Calm     52% 0.00 in
20:14 23.5 °F 8.9 °F 30.13 in Calm     53% 0.00 in
20:19 23.3 °F 8.7 °F 30.14 in Calm     53% 0.00 in
20:24 23.5 °F 8.4 °F 30.13 in Calm     52% 0.00 in
20:30 23.6 °F 7.2 °F 30.13 in Calm     49% 0.00 in
20:35 23.8 °F 6.9 °F 30.13 in Calm     48% 0.00 in
20:40 24.1 °F 6.7 °F 30.14 in Calm     47% 0.00 in
20:45 24.2 °F 7.3 °F 30.14 in Calm     48% 0.00 in
20:50 24.1 °F 7.2 °F 30.14 in Calm     48% 0.00 in
20:55 23.8 °F 7.4 °F 30.14 in Calm     49% 0.00 in
21:00 23.5 °F 8.0 °F 30.14 in Calm     51% 0.00 in
21:05 23.2 °F 8.2 °F 30.13 in Calm     52% 0.00 in
21:10 22.7 °F 7.7 °F 30.13 in Calm     52% 0.00 in
21:15 22.4 °F 7.8 °F 30.14 in Calm     53% 0.00 in
21:20 22.1 °F 8.4 °F 30.14 in Calm     55% 0.00 in
21:25 21.8 °F 8.1 °F 30.14 in Calm     55% 0.00 in
21:30 21.6 °F 8.3 °F 30.14 in Calm     56% 0.00 in
21:35 21.4 °F 8.9 °F 30.14 in Calm     58% 0.00 in
21:40 21.4 °F 8.9 °F 30.14 in Calm     58% 0.00 in
21:45 21.4 °F 8.9 °F 30.14 in Calm     58% 0.00 in
21:50 21.4 °F 9.3 °F 30.15 in Calm     59% 0.00 in
21:55 21.3 °F 9.2 °F 30.15 in Calm     59% 0.00 in
22:00 21.0 °F 8.6 °F 30.15 in Calm     58% 0.00 in
22:01 21.0 °F 8.9 °F 30.15 in Calm     59% 0.00 in
22:06 20.8 °F 8.7 °F 30.15 in Calm     59% 0.00 in
22:11 21.0 °F 8.9 °F 30.15 in Calm     59% 0.00 in
22:16 20.8 °F 8.7 °F 30.16 in Calm     59% 0.00 in
22:21 20.5 °F 8.0 °F 30.16 in Calm     58% 0.00 in
22:26 20.5 °F 8.0 °F 30.16 in Calm     58% 0.00 in
22:31 20.5 °F 8.8 °F 30.16 in Calm     60% 0.00 in
22:36 20.5 °F 8.8 °F 30.16 in Calm     60% 0.00 in
22:41 20.5 °F 7.7 °F 30.16 in Calm     57% 0.00 in
22:46 21.1 °F 7.0 °F 30.16 in Calm     54% 0.00 in
22:51 21.8 °F 6.0 °F 30.15 in Calm     50% 0.00 in
22:56 22.4 °F 7.0 °F 30.15 in Calm     51% 0.00 in
23:01 22.7 °F 5.9 °F 30.15 in Calm     48% 0.00 in
23:06 23.2 °F 5.4 °F 30.15 in Calm     46% 0.00 in
23:11 23.5 °F 5.7 °F 30.14 in Calm     46% 0.00 in
23:16 23.6 °F 5.8 °F 30.14 in Calm     46% 0.00 in
23:21 23.6 °F 5.8 °F 30.14 in Calm     46% 0.00 in
23:26 23.6 °F 5.8 °F 30.14 in Calm     46% 0.00 in
23:31 23.9 °F 6.1 °F 30.14 in Calm     46% 0.00 in
23:36 24.1 °F 5.3 °F 30.14 in Calm     44% 0.00 in
23:41 24.2 °F 5.9 °F 30.14 in Calm     45% 0.00 in
23:46 24.2 °F 5.4 °F 30.14 in Calm   0.1 mph 44% 0.00 in
23:51 24.4 °F 5.6 °F 30.14 in West 3.5 mph   44% 0.00 in
23:56 24.4 °F 4.6 °F 30.14 in West 2.3 mph 2.3 mph 42% 0.00 in
Windsor CO Weather
Compliments of Weather Underground